Time;durP1;ratioP1;P1;durP2;ratioP2;P2;SDS_P1;SDS_P2;PMS_P1;PMS_P2;Temp;Humidity;BMP_temperature;BMP_pressure;BME280_temperature;BME280_humidity;BME280_pressure;Samples;Min_cycle;Max_cycle;Signal;HPM_P1;HPM_P2
2021/07/15 00:00:37;;;;;;;9.80;4.13;;;25.40;88.10;;;;;;5027871;28;20229;-74
2021/07/15 00:03:10;;;;;;;14.48;4.40;;;25.40;87.60;;;;;;5026114;28;20187;-74
2021/07/15 00:05:39;;;;;;;7.60;3.90;;;25.40;87.90;;;;;;5037171;28;20215;-75
2021/07/15 00:08:12;;;;;;;6.00;4.10;;;25.30;87.80;;;;;;5039297;28;20218;-74
2021/07/15 00:10:54;;;;;;;8.95;4.38;;;25.40;87.90;;;;;;5025617;28;20513;-76
2021/07/15 00:13:21;;;;;;;12.43;4.05;;;25.40;88.00;;;;;;5041235;28;20233;-75
2021/07/15 00:15:56;;;;;;;9.85;5.10;;;25.40;88.30;;;;;;5042474;28;20191;-74
2021/07/15 00:18:31;;;;;;;14.75;4.15;;;25.40;88.00;;;;;;5035707;28;20183;-75
2021/07/15 00:21:01;;;;;;;10.90;3.88;;;25.40;87.90;;;;;;5042768;28;20183;-74
2021/07/15 00:23:28;;;;;;;6.57;3.70;;;25.30;87.70;;;;;;5040860;28;20187;-75
2021/07/15 00:25:55;;;;;;;10.20;4.75;;;25.30;87.70;;;;;;5043469;28;20222;-75
2021/07/15 00:28:22;;;;;;;7.33;4.20;;;25.30;87.70;;;;;;5027851;28;20230;-75
2021/07/15 00:30:51;;;;;;;6.82;3.80;;;25.30;87.60;;;;;;5024307;28;20188;-74
2021/07/15 00:33:17;;;;;;;14.13;4.50;;;25.30;87.60;;;;;;5041812;28;20195;-74
2021/07/15 00:35:44;;;;;;;14.15;4.00;;;25.40;87.40;;;;;;5018296;28;20200;-76
2021/07/15 00:38:10;;;;;;;12.98;3.90;;;25.40;87.30;;;;;;5041642;28;20308;-74
2021/07/15 00:40:38;;;;;;;7.88;4.15;;;25.40;87.20;;;;;;5042210;28;20748;-76
2021/07/15 00:43:07;;;;;;;7.55;4.30;;;25.40;86.80;;;;;;5042268;28;20202;-74
2021/07/15 00:45:35;;;;;;;10.43;4.30;;;25.40;86.60;;;;;;5041328;28;20250;-75
2021/07/15 00:48:01;;;;;;;9.55;4.00;;;25.40;87.10;;;;;;5041166;28;20214;-74
2021/07/15 00:50:28;;;;;;;4.93;3.67;;;25.40;86.60;;;;;;5041903;28;20188;-74
2021/07/15 00:52:54;;;;;;;10.98;4.10;;;25.40;85.90;;;;;;5041858;28;20195;-74
2021/07/15 00:55:32;;;;;;;6.75;3.45;;;25.40;86.70;;;;;;5044110;28;20929;-74
2021/07/15 00:58:01;;;;;;;8.57;3.75;;;25.40;86.70;;;;;;5024364;28;20194;-75
2021/07/15 01:00:28;;;;;;;8.48;3.63;;;25.40;86.40;;;;;;5039833;28;20195;-75
2021/07/15 01:02:56;;;;;;;8.17;3.87;;;25.40;86.00;;;;;;5041962;28;20198;-74
2021/07/15 01:05:32;;;;;;;10.70;3.90;;;25.40;86.00;;;;;;5040195;28;20208;-74
2021/07/15 01:07:59;;;;;;;8.52;4.25;;;25.40;86.50;;;;;;5034118;28;20210;-75
2021/07/15 01:10:47;;;;;;;9.45;3.90;;;25.40;85.20;;;;;;5044823;28;20180;-74
2021/07/15 01:13:49;;;;;;;14.82;3.92;;;25.40;86.20;;;;;;5045545;28;20182;-74
2021/07/15 01:16:21;;;;;;;12.27;4.05;;;25.50;86.10;;;;;;5040652;28;20265;-73
2021/07/15 01:19:16;;;;;;;8.70;3.72;;;25.50;86.60;;;;;;5026254;28;20525;-74
2021/07/15 01:22:43;;;;;;;6.35;3.50;;;25.50;85.90;;;;;;5020158;28;20187;-74
2021/07/15 01:25:36;;;;;;;9.90;3.80;;;25.50;85.80;;;;;;5021638;28;20898;-74
2021/07/15 01:28:10;;;;;;;12.27;3.80;;;25.50;85.30;;;;;;5035568;28;20279;-74
2021/07/15 01:30:52;;;;;;;9.55;4.18;;;25.50;85.70;;;;;;5045212;28;20194;-75
2021/07/15 01:33:23;;;;;;;10.05;3.60;;;25.50;85.50;;;;;;5052955;28;20257;-75
2021/07/15 01:36:08;;;;;;;12.57;4.30;;;25.50;86.30;;;;;;5045838;28;20297;-73
2021/07/15 01:38:52;;;;;;;5.60;4.03;;;25.50;86.30;;;;;;5020670;28;20191;-74
2021/07/15 01:41:31;;;;;;;14.70;4.60;;;25.50;85.20;;;;;;5028420;28;20634;-75
2021/07/15 01:44:09;;;;;;;8.57;3.95;;;25.40;85.40;;;;;;5048479;28;20278;-75
2021/07/15 01:46:37;;;;;;;5.60;3.95;;;25.40;85.20;;;;;;5048699;28;20947;-76
2021/07/15 01:49:07;;;;;;;6.18;3.58;;;25.30;84.60;;;;;;5030787;28;20724;-73
2021/07/15 01:51:36;;;;;;;7.07;3.60;;;25.30;84.80;;;;;;5025483;28;20187;-75
2021/07/15 01:54:03;;;;;;;9.70;3.83;;;25.30;85.70;;;;;;5044628;28;20187;-74
2021/07/15 01:56:31;;;;;;;10.35;4.05;;;25.30;85.40;;;;;;5029616;28;20761;-74
2021/07/15 01:58:59;;;;;;;6.15;3.90;;;25.30;85.60;;;;;;5045132;28;20187;-75
2021/07/15 02:01:27;;;;;;;9.27;4.05;;;25.30;85.50;;;;;;5046269;28;20210;-74
2021/07/15 02:03:57;;;;;;;7.60;3.72;;;25.30;86.30;;;;;;5043527;28;20187;-75
2021/07/15 02:06:25;;;;;;;8.23;4.20;;;25.30;85.60;;;;;;5042996;28;20254;-74
2021/07/15 02:08:58;;;;;;;8.00;3.72;;;25.30;86.10;;;;;;5034329;28;20203;-74
2021/07/15 02:11:30;;;;;;;10.65;4.45;;;25.30;85.90;;;;;;5043616;28;20738;-74
2021/07/15 02:13:56;;;;;;;14.70;4.10;;;25.30;86.40;;;;;;5048292;28;20182;-73
2021/07/15 02:16:23;;;;;;;9.10;3.95;;;25.30;86.50;;;;;;5045482;28;20196;-74
2021/07/15 02:18:50;;;;;;;5.72;3.53;;;25.20;85.50;;;;;;5026727;28;20215;-74
2021/07/15 02:21:17;;;;;;;7.03;3.83;;;25.10;85.60;;;;;;5030142;28;20194;-73
2021/07/15 02:23:45;;;;;;;7.68;3.75;;;25.10;85.50;;;;;;5046240;28;20749;-74
2021/07/15 02:26:13;;;;;;;7.87;3.90;;;25.00;85.80;;;;;;5044770;28;20219;-74
2021/07/15 02:28:40;;;;;;;9.15;3.60;;;24.90;85.30;;;;;;5044789;28;20190;-74
2021/07/15 02:31:15;;;;;;;8.65;3.97;;;24.90;86.20;;;;;;5042141;28;20249;-74
2021/07/15 02:33:58;;;;;;;10.40;3.93;;;24.90;86.70;;;;;;5044564;28;20184;-74
2021/07/15 02:36:29;;;;;;;6.50;3.80;;;24.90;86.30;;;;;;5029382;28;20184;-74
2021/07/15 02:38:59;;;;;;;6.40;4.20;;;24.80;86.60;;;;;;5055658;28;20567;-74
2021/07/15 02:41:26;;;;;;;5.55;3.83;;;24.80;86.40;;;;;;5016613;28;20271;-73
2021/07/15 02:43:52;;;;;;;8.55;3.95;;;24.90;87.00;;;;;;5026804;28;20237;-75
2021/07/15 02:46:18;;;;;;;8.23;4.45;;;24.90;86.90;;;;;;5042706;28;20212;-74
2021/07/15 02:48:45;;;;;;;9.55;4.05;;;25.00;87.90;;;;;;5043865;28;20190;-73
2021/07/15 02:51:11;;;;;;;8.80;4.40;;;25.00;88.10;;;;;;5043916;28;20544;-74
2021/07/15 02:53:39;;;;;;;9.93;4.55;;;25.00;88.10;;;;;;5043906;28;20188;-74
2021/07/15 02:56:34;;;;;;;7.80;4.57;;;25.10;89.20;;;;;;5047359;28;20310;-74
2021/07/15 02:59:23;;;;;;;9.07;5.20;;;25.10;91.00;;;;;;5045183;28;20217;-74
2021/07/15 03:02:11;;;;;;;6.50;4.15;;;25.20;93.60;;;;;;5045450;28;20331;-76
2021/07/15 03:04:53;;;;;;;10.07;5.38;;;25.20;92.60;;;;;;5045198;28;20196;-75
2021/07/15 03:07:25;;;;;;;12.82;5.30;;;25.20;94.70;;;;;;5030187;28;20220;-74
2021/07/15 03:09:54;;;;;;;11.45;5.85;;;25.20;97.50;;;;;;5041478;28;20176;-75
2021/07/15 03:12:24;;;;;;;14.43;5.50;;;25.30;99.30;;;;;;5037411;28;20268;-74
2021/07/15 03:14:56;;;;;;;12.77;6.53;;;25.30;99.90;;;;;;5040619;28;20194;-76
2021/07/15 03:17:37;;;;;;;12.85;6.30;;;25.30;99.90;;;;;;5041260;28;20342;-74
2021/07/15 03:20:14;;;;;;;10.30;6.38;;;25.30;99.90;;;;;;5043786;28;20321;-74
2021/07/15 03:22:44;;;;;;;11.25;7.47;;;25.30;99.90;;;;;;5028342;28;20232;-75
2021/07/15 03:25:16;;;;;;;16.75;7.13;;;25.30;99.90;;;;;;5042532;28;20196;-75
2021/07/15 03:27:46;;;;;;;17.13;7.88;;;25.30;99.90;;;;;;5043179;28;20603;-75
2021/07/15 03:30:14;;;;;;;14.65;8.20;;;25.30;99.90;;;;;;5026971;28;20183;-74
2021/07/15 03:32:44;;;;;;;19.27;8.10;;;25.30;99.90;;;;;;5043573;28;20288;-75
2021/07/15 03:35:14;;;;;;;16.58;8.30;;;25.30;99.90;;;;;;5042518;28;20182;-74
2021/07/15 03:37:45;;;;;;;18.73;9.15;;;25.30;99.90;;;;;;5044855;28;20660;-74
2021/07/15 03:40:17;;;;;;;17.15;8.63;;;25.30;99.90;;;;;;5040535;28;20820;-74
2021/07/15 03:42:46;;;;;;;22.42;8.68;;;25.30;99.90;;;;;;5035750;28;20677;-73
2021/07/15 03:45:18;;;;;;;15.57;9.07;;;25.40;99.90;;;;;;5044232;28;20233;-75
2021/07/15 03:47:51;;;;;;;21.02;9.10;;;25.40;99.90;;;;;;5043688;28;20183;-75
2021/07/15 03:50:25;;;;;;;18.67;9.98;;;25.40;99.90;;;;;;5042621;28;20183;-74
2021/07/15 03:52:56;;;;;;;21.10;10.43;;;25.50;99.90;;;;;;5031370;28;20190;-76
2021/07/15 03:55:31;;;;;;;16.38;8.82;;;25.40;99.90;;;;;;5042393;28;20269;-75
2021/07/15 03:58:09;;;;;;;16.73;10.45;;;25.40;99.90;;;;;;5043432;28;20268;-74
2021/07/15 04:00:38;;;;;;;16.15;9.82;;;25.40;99.90;;;;;;5039966;28;20229;-75
2021/07/15 04:03:10;;;;;;;18.15;9.95;;;25.40;99.90;;;;;;5040920;28;20206;-74
2021/07/15 04:05:41;;;;;;;20.75;9.05;;;25.40;99.90;;;;;;5042446;28;20255;-75
2021/07/15 04:08:09;;;;;;;16.58;9.07;;;25.40;99.90;;;;;;5020967;28;20278;-74
2021/07/15 04:10:40;;;;;;;36.30;9.25;;;25.40;99.90;;;;;;5041673;28;20179;-74
2021/07/15 04:13:08;;;;;;;19.17;8.68;;;25.30;99.90;;;;;;5031643;28;20317;-75
2021/07/15 04:15:55;;;;;;;18.90;8.45;;;25.20;99.90;;;;;;5039674;28;20221;-75
2021/07/15 04:18:38;;;;;;;16.70;8.60;;;25.20;99.90;;;;;;5026081;28;20184;-74
2021/07/15 04:21:07;;;;;;;11.82;6.18;;;25.20;99.90;;;;;;5057094;28;20172;-75
2021/07/15 04:23:36;;;;;;;11.37;5.87;;;25.20;99.90;;;;;;5039318;28;20187;-74
2021/07/15 04:26:05;;;;;;;12.32;5.93;;;25.20;99.90;;;;;;5043274;28;20211;-73
2021/07/15 04:28:32;;;;;;;11.98;5.88;;;25.20;99.90;;;;;;5042210;28;20292;-74
2021/07/15 04:31:25;;;;;;;12.90;6.25;;;25.20;99.90;;;;;;5009001;28;20184;-74
2021/07/15 04:33:55;;;;;;;10.38;5.80;;;25.20;99.90;;;;;;5043807;28;20192;-75
2021/07/15 04:36:23;;;;;;;15.63;6.32;;;25.20;99.90;;;;;;5040946;28;20187;-74
2021/07/15 04:38:51;;;;;;;8.23;5.65;;;25.20;99.90;;;;;;5041890;28;20202;-73
2021/07/15 04:41:20;;;;;;;14.05;6.03;;;25.20;99.90;;;;;;5024554;28;20183;-74
2021/07/15 04:43:49;;;;;;;11.50;5.70;;;25.30;99.90;;;;;;5014771;28;20332;-74
2021/07/15 04:46:19;;;;;;;19.30;6.65;;;25.30;99.90;;;;;;5038326;28;20204;-74
2021/07/15 04:48:47;;;;;;;13.32;7.32;;;25.30;99.90;;;;;;5044890;28;20191;-74
2021/07/15 04:51:16;;;;;;;12.75;6.95;;;25.40;99.90;;;;;;5039311;28;20220;-74
2021/07/15 04:53:46;;;;;;;15.65;7.35;;;25.50;99.90;;;;;;5023614;28;20253;-75
2021/07/15 04:56:15;;;;;;;14.48;8.43;;;25.50;99.90;;;;;;5037361;28;20187;-75
2021/07/15 04:58:44;;;;;;;17.48;8.80;;;25.60;99.90;;;;;;5025839;28;20261;-74
2021/07/15 05:01:11;;;;;;;15.13;7.57;;;25.60;99.90;;;;;;5041388;28;20671;-73
2021/07/15 05:03:39;;;;;;;18.42;9.13;;;25.60;99.90;;;;;;5041350;28;20203;-74
2021/07/15 05:06:09;;;;;;;15.88;8.77;;;25.70;99.90;;;;;;5041706;28;20214;-74
2021/07/15 05:08:39;;;;;;;21.63;8.10;;;25.80;99.90;;;;;;5025993;28;20634;-75
2021/07/15 05:11:07;;;;;;;17.75;7.97;;;25.90;99.90;;;;;;5024168;28;20663;-75
2021/07/15 05:13:34;;;;;;;14.98;7.50;;;25.90;99.90;;;;;;5014203;28;20820;-73
2021/07/15 05:16:01;;;;;;;15.10;8.20;;;25.90;99.90;;;;;;5032276;28;21058;-74
2021/07/15 05:18:27;;;;;;;13.88;7.75;;;25.90;99.90;;;;;;5039703;28;20199;-74
2021/07/15 05:20:54;;;;;;;15.98;8.93;;;25.90;99.90;;;;;;5055838;28;20188;-74
2021/07/15 05:23:20;;;;;;;24.40;8.35;;;26.00;99.90;;;;;;5041576;28;20214;-74
2021/07/15 05:25:47;;;;;;;15.63;9.15;;;26.10;99.90;;;;;;5044076;28;20710;-73
2021/07/15 05:28:13;;;;;;;16.13;8.20;;;26.20;99.90;;;;;;5041657;28;20180;-74
2021/07/15 05:30:40;;;;;;;15.23;7.97;;;26.20;99.90;;;;;;5025471;28;20191;-74
2021/07/15 05:33:06;;;;;;;15.02;8.52;;;26.20;99.90;;;;;;5019164;28;20183;-75
2021/07/15 05:35:33;;;;;;;15.98;9.07;;;26.20;99.90;;;;;;5041208;28;20180;-75
2021/07/15 05:38:01;;;;;;;15.07;9.70;;;26.30;99.90;;;;;;5039253;28;20195;-75
2021/07/15 05:40:28;;;;;;;19.13;10.05;;;26.40;99.90;;;;;;5042024;28;20205;-74
2021/07/15 05:42:54;;;;;;;17.10;9.82;;;26.60;99.90;;;;;;5042811;28;20195;-74
2021/07/15 05:45:21;;;;;;;25.25;10.55;;;26.60;99.90;;;;;;5041288;28;20238;-75
2021/07/15 05:47:47;;;;;;;14.25;9.70;;;26.70;99.90;;;;;;5040320;28;20312;-74
2021/07/15 05:50:15;;;;;;;15.85;8.68;;;26.70;99.90;;;;;;5041299;28;20234;-74
2021/07/15 05:52:41;;;;;;;24.70;9.48;;;26.60;99.90;;;;;;5054905;28;20191;-76
2021/07/15 05:55:08;;;;;;;13.93;9.52;;;26.70;99.90;;;;;;5043628;28;20674;-75
2021/07/15 05:57:35;;;;;;;13.45;9.43;;;26.70;99.90;;;;;;5020941;28;20204;-74
2021/07/15 06:00:07;;;;;;;14.65;9.18;;;26.70;99.90;;;;;;5039049;28;20215;-74
2021/07/15 06:02:34;;;;;;;19.20;10.75;;;26.70;99.90;;;;;;5037680;28;20206;-77
2021/07/15 06:05:00;;;;;;;19.63;11.82;;;26.90;99.90;;;;;;5036144;28;20246;-78
2021/07/15 06:07:27;;;;;;;21.83;12.10;;;27.00;99.90;;;;;;5043853;28;20216;-74
2021/07/15 06:09:54;;;;;;;17.27;11.43;;;27.10;99.90;;;;;;5039535;28;20195;-73
2021/07/15 06:12:20;;;;;;;17.30;10.48;;;27.20;99.90;;;;;;5043871;28;20238;-75
2021/07/15 06:14:48;;;;;;;20.92;11.95;;;27.20;99.90;;;;;;5040287;28;21333;-74
2021/07/15 06:17:14;;;;;;;29.48;13.90;;;27.20;99.90;;;;;;5034856;28;20210;-76
2021/07/15 06:19:41;;;;;;;26.00;13.75;;;27.50;99.90;;;;;;5051802;28;20191;-74
2021/07/15 06:22:07;;;;;;;24.02;14.57;;;27.50;99.90;;;;;;5058329;28;20235;-76
2021/07/15 06:24:33;;;;;;;27.63;14.63;;;27.60;99.90;;;;;;5026808;28;20211;-75
2021/07/15 06:27:00;;;;;;;24.52;14.65;;;27.70;99.90;;;;;;5044059;28;20318;-76
2021/07/15 06:29:26;;;;;;;26.63;14.95;;;27.80;99.90;;;;;;5041127;28;20214;-77
2021/07/15 06:31:53;;;;;;;27.05;15.50;;;27.80;99.90;;;;;;5044516;28;20241;-76
2021/07/15 06:34:20;;;;;;;22.30;13.88;;;27.80;99.90;;;;;;5044941;28;20184;-76
2021/07/15 06:36:48;;;;;;;27.60;13.95;;;27.90;99.90;;;;;;5044567;28;20251;-74
2021/07/15 06:39:14;;;;;;;32.13;14.40;;;28.00;99.90;;;;;;5055571;28;20200;-77
2021/07/15 06:41:41;;;;;;;25.42;13.00;;;28.10;99.90;;;;;;5029801;28;20183;-73
2021/07/15 06:44:09;;;;;;;23.88;13.55;;;28.20;99.90;;;;;;5047435;28;20191;-75
2021/07/15 06:46:38;;;;;;;26.45;13.57;;;28.20;99.90;;;;;;5053604;28;20337;-76
2021/07/15 06:49:07;;;;;;;26.75;14.38;;;28.30;99.90;;;;;;5041892;28;20201;-76
2021/07/15 06:51:35;;;;;;;27.10;13.98;;;28.40;99.90;;;;;;5042154;28;20269;-74
2021/07/15 06:54:02;;;;;;;29.30;14.55;;;28.40;99.90;;;;;;5028260;28;20199;-76
2021/07/15 06:56:29;;;;;;;23.55;13.68;;;28.40;99.90;;;;;;5046436;28;20196;-77
2021/07/15 06:58:55;;;;;;;26.85;13.18;;;28.50;99.90;;;;;;5043836;28;20261;-76
2021/07/15 07:01:21;;;;;;;22.70;13.27;;;28.70;99.90;;;;;;5043494;28;20287;-77
2021/07/15 07:03:48;;;;;;;26.98;13.88;;;28.70;99.90;;;;;;5024989;28;20643;-76
2021/07/15 07:06:14;;;;;;;28.70;13.25;;;28.70;99.90;;;;;;5042047;28;20272;-76
2021/07/15 07:08:41;;;;;;;22.73;12.93;;;28.70;99.90;;;;;;5027276;28;20207;-75
2021/07/15 07:11:08;;;;;;;25.50;12.75;;;28.80;99.90;;;;;;5044004;28;20206;-76
2021/07/15 07:13:34;;;;;;;22.55;13.43;;;28.80;99.90;;;;;;5026837;28;20199;-76
2021/07/15 07:16:04;;;;;;;26.30;12.43;;;28.90;99.90;;;;;;5033786;28;20271;-76
2021/07/15 07:18:31;;;;;;;21.95;12.65;;;29.10;99.90;;;;;;5017925;28;20878;-75
2021/07/15 07:20:59;;;;;;;20.90;12.40;;;29.10;99.90;;;;;;5041806;28;20194;-76
2021/07/15 07:23:25;;;;;;;18.42;11.88;;;29.10;99.90;;;;;;5041655;28;20542;-76
2021/07/15 07:25:51;;;;;;;23.55;12.32;;;29.20;99.90;;;;;;5040179;28;20672;-76
2021/07/15 07:28:18;;;;;;;18.20;11.68;;;29.20;99.90;;;;;;5024726;28;20184;-75
2021/07/15 07:30:45;;;;;;;20.33;11.65;;;29.20;99.90;;;;;;5039042;28;20184;-76
2021/07/15 07:33:14;;;;;;;21.58;11.60;;;29.10;99.90;;;;;;5025824;28;20218;-78
2021/07/15 07:35:41;;;;;;;22.80;11.75;;;29.20;99.90;;;;;;5038858;28;20203;-75
2021/07/15 07:38:07;;;;;;;22.73;11.07;;;29.30;99.90;;;;;;5042004;28;20924;-76
2021/07/15 07:40:34;;;;;;;20.17;11.77;;;29.40;99.90;;;;;;5039713;28;20916;-76
2021/07/15 07:43:00;;;;;;;18.58;11.73;;;29.40;99.90;;;;;;5023128;28;20280;-76
2021/07/15 07:45:28;;;;;;;23.20;11.00;;;29.50;99.90;;;;;;5044458;28;20287;-78
2021/07/15 07:47:57;;;;;;;21.40;11.30;;;29.60;99.90;;;;;;5034866;28;20191;-78
2021/07/15 07:50:23;;;;;;;21.75;11.10;;;29.60;99.90;;;;;;5017570;28;20275;-77
2021/07/15 07:52:50;;;;;;;23.35;10.98;;;29.60;99.90;;;;;;5025900;28;20670;-76
2021/07/15 07:55:17;;;;;;;24.10;10.65;;;29.80;99.90;;;;;;5038947;28;20341;-78
2021/07/15 07:57:45;;;;;;;24.15;10.48;;;29.80;99.90;;;;;;5059019;28;20187;-79
2021/07/15 08:00:15;;;;;;;19.55;10.35;;;29.90;99.90;;;;;;5043251;28;20173;-77
2021/07/15 08:02:46;;;;;;;18.25;10.13;;;29.80;99.90;;;;;;5045209;28;20207;-77
2021/07/15 08:05:17;;;;;;;21.50;9.93;;;29.90;99.90;;;;;;5030533;28;20770;-78
2021/07/15 08:07:44;;;;;;;18.15;10.07;;;30.00;99.90;;;;;;5028161;28;20191;-77
2021/07/15 08:10:13;;;;;;;15.95;9.40;;;30.10;99.90;;;;;;5043226;28;20929;-80
2021/07/15 08:12:41;;;;;;;17.38;10.18;;;30.20;99.90;;;;;;5028536;28;20270;-77
2021/07/15 08:15:10;;;;;;;21.10;10.13;;;30.20;99.90;;;;;;5044240;28;20999;-80
2021/07/15 08:17:38;;;;;;;20.42;9.05;;;30.40;99.90;;;;;;5027787;28;20274;-76
2021/07/15 08:20:09;;;;;;;18.17;9.32;;;30.50;99.90;;;;;;5019521;28;20275;-78
2021/07/15 08:22:36;;;;;;;12.20;8.52;;;30.60;99.90;;;;;;5045824;28;20179;-77
2021/07/15 08:25:08;;;;;;;18.95;8.80;;;30.70;99.90;;;;;;5027244;28;20179;-77
2021/07/15 08:27:36;;;;;;;19.00;9.18;;;30.70;99.90;;;;;;5026628;28;20211;-80
2021/07/15 08:30:08;;;;;;;15.90;8.77;;;30.80;99.90;;;;;;5045579;28;20191;-77
2021/07/15 08:32:36;;;;;;;20.92;9.35;;;30.90;99.90;;;;;;5026903;28;20587;-77
2021/07/15 08:35:04;;;;;;;20.48;9.05;;;31.00;99.90;;;;;;5028466;28;20225;-77
2021/07/15 08:37:31;;;;;;;19.50;9.50;;;31.10;99.90;;;;;;5044533;28;20184;-73
2021/07/15 08:39:57;;;;;;;16.20;8.65;;;30.90;99.90;;;;;;5045576;28;20191;-79
2021/07/15 08:42:27;;;;;;;14.88;9.00;;;31.10;99.90;;;;;;5025336;28;20230;-80
2021/07/15 08:45:07;;;;;;;15.25;8.27;;;31.10;99.90;;;;;;5028664;28;20199;-78
2021/07/15 08:47:44;;;;;;;20.50;8.23;;;31.20;99.90;;;;;;5036925;28;20203;-77
2021/07/15 08:50:16;;;;;;;18.10;8.60;;;31.20;99.90;;;;;;5021229;28;20180;-78
2021/07/15 08:52:44;;;;;;;16.35;8.32;;;31.30;99.90;;;;;;5036997;28;20187;-78
2021/07/15 08:57:42;;;;;;;16.20;7.90;;;31.50;99.90;;;;;;5042216;28;20191;-74
2021/07/15 09:00:14;;;;;;;15.20;8.70;;;31.50;99.90;;;;;;5026843;28;20844;-78
2021/07/15 09:02:44;;;;;;;15.15;7.70;;;31.60;99.90;;;;;;5044125;28;20191;-76
2021/07/15 09:05:12;;;;;;;18.13;7.82;;;31.50;99.90;;;;;;5026936;28;20714;-75
2021/07/15 09:07:44;;;;;;;19.70;8.25;;;31.60;99.90;;;;;;5057860;28;20253;-78
2021/07/15 09:10:11;;;;;;;15.07;8.05;;;31.80;99.90;;;;;;5044954;28;20215;-77
2021/07/15 09:12:39;;;;;;;16.00;8.40;;;31.80;99.90;;;;;;5042965;28;20194;-75
2021/07/15 09:15:11;;;;;;;14.40;7.82;;;31.90;99.90;;;;;;5041124;28;20936;-75
2021/07/15 09:17:41;;;;;;;14.80;7.22;;;32.00;99.90;;;;;;5029810;28;20272;-75
2021/07/15 09:20:29;;;;;;;14.43;6.90;;;32.10;99.90;;;;;;5044380;28;20311;-76
2021/07/15 09:23:02;;;;;;;17.60;8.25;;;32.10;99.90;;;;;;5038120;28;20275;-77
2021/07/15 09:25:49;;;;;;;14.60;7.57;;;32.20;99.90;;;;;;5042858;28;20666;-73
2021/07/15 09:28:25;;;;;;;15.25;7.70;;;32.10;99.90;;;;;;5040816;28;20179;-77
2021/07/15 09:30:52;;;;;;;10.82;6.57;;;32.30;99.90;;;;;;5039335;28;20193;-75
2021/07/15 09:33:19;;;;;;;12.38;6.63;;;32.50;99.90;;;;;;5040549;28;20191;-73
2021/07/15 09:35:48;;;;;;;12.13;6.20;;;32.50;99.90;;;;;;5047663;28;20198;-78
2021/07/15 09:38:19;;;;;;;8.90;5.32;;;32.70;99.90;;;;;;5026657;28;20674;-76
2021/07/15 09:41:02;;;;;;;10.57;5.30;;;32.90;99.90;;;;;;5047880;28;20204;-74
2021/07/15 09:43:37;;;;;;;10.77;5.32;;;33.00;99.90;;;;;;5041339;28;20199;-75
2021/07/15 09:46:16;;;;;;;15.05;5.32;;;33.20;99.90;;;;;;5043508;28;20214;-76
2021/07/15 09:48:46;;;;;;;7.78;5.50;;;33.30;99.90;;;;;;5048649;28;20191;-74
2021/07/15 09:51:17;;;;;;;9.95;4.80;;;33.40;99.90;;;;;;5043868;28;20226;-74
2021/07/15 09:53:45;;;;;;;9.63;4.90;;;33.70;99.30;;;;;;5023097;28;20184;-78
2021/07/15 09:56:17;;;;;;;12.43;4.53;;;33.80;97.50;;;;;;5063712;28;20937;-75
2021/07/15 09:58:50;;;;;;;10.95;4.97;;;34.00;93.60;;;;;;5044775;28;20195;-76
2021/07/15 10:01:24;;;;;;;11.23;4.60;;;34.00;92.60;;;;;;5048140;28;21012;-75
2021/07/15 10:03:55;;;;;;;7.80;4.50;;;34.20;90.20;;;;;;5049128;28;20201;-76
2021/07/15 10:06:21;;;;;;;14.38;4.80;;;34.30;87.20;;;;;;5032064;28;20289;-78
2021/07/15 10:08:55;;;;;;;8.98;4.75;;;34.40;85.40;;;;;;5064398;28;21484;-76
2021/07/15 10:11:28;;;;;;;8.38;4.40;;;34.30;82.60;;;;;;5040269;28;20198;-79
2021/07/15 10:14:08;;;;;;;8.60;4.10;;;34.40;79.70;;;;;;5029318;28;20199;-80
2021/07/15 10:16:45;;;;;;;10.15;4.70;;;34.50;77.30;;;;;;5046765;28;20193;-76
2021/07/15 10:19:21;;;;;;;9.35;4.40;;;34.50;75.40;;;;;;5046500;28;20284;-75
2021/07/15 10:22:07;;;;;;;9.43;4.40;;;34.80;71.30;;;;;;5025739;28;20187;-75
2021/07/15 10:24:34;;;;;;;7.93;3.92;;;34.70;72.00;;;;;;5037629;28;20222;-76
2021/07/15 10:27:05;;;;;;;9.82;4.68;;;34.90;68.80;;;;;;5043451;28;20218;-76
2021/07/15 10:29:33;;;;;;;7.40;4.00;;;35.00;68.30;;;;;;5042208;28;20192;-75
2021/07/15 10:32:01;;;;;;;11.18;4.53;;;35.10;65.70;;;;;;5043895;28;20184;-76
2021/07/15 10:34:29;;;;;;;10.73;4.07;;;35.10;66.40;;;;;;5043317;28;20688;-74
2021/07/15 10:37:00;;;;;;;5.80;4.05;;;35.30;64.10;;;;;;5044462;28;22176;-77
2021/07/15 10:39:30;;;;;;;10.23;4.20;;;35.40;63.40;;;;;;5045956;28;20187;-76
2021/07/15 10:41:58;;;;;;;12.70;4.47;;;35.60;61.20;;;;;;5062280;28;20195;-76
2021/07/15 10:44:26;;;;;;;7.15;4.30;;;35.40;60.60;;;;;;5039690;28;20191;-75
2021/07/15 10:46:53;;;;;;;12.35;3.90;;;35.40;60.30;;;;;;5042215;28;20850;-75
2021/07/15 10:49:22;;;;;;;12.32;4.45;;;35.40;62.90;;;;;;5049464;28;20180;-74
2021/07/15 10:51:53;;;;;;;9.02;4.20;;;35.40;59.60;;;;;;5058426;28;20222;-76
2021/07/15 10:54:21;;;;;;;9.93;4.10;;;35.50;59.00;;;;;;5032332;28;20188;-77
2021/07/15 10:56:51;;;;;;;6.95;4.18;;;35.60;57.90;;;;;;5046756;28;20698;-78
2021/07/15 10:59:31;;;;;;;10.73;4.30;;;35.50;58.80;;;;;;5052317;28;20187;-76
2021/07/15 11:02:01;;;;;;;12.45;4.10;;;35.60;58.00;;;;;;5046376;28;20197;-75
2021/07/15 11:04:37;;;;;;;8.27;4.18;;;35.60;57.10;;;;;;5038816;28;20187;-75
2021/07/15 11:07:23;;;;;;;10.65;4.35;;;35.70;57.00;;;;;;5059458;28;20214;-74
2021/07/15 11:09:54;;;;;;;8.63;3.80;;;35.50;57.50;;;;;;5043948;28;20316;-75
2021/07/15 11:12:36;;;;;;;7.18;4.25;;;35.50;57.40;;;;;;5059071;28;20203;-76
2021/07/15 11:15:16;;;;;;;6.10;3.92;;;35.60;60.00;;;;;;5028076;28;20873;-74
2021/07/15 11:17:51;;;;;;;9.20;4.43;;;35.60;58.10;;;;;;5042089;28;20188;-78
2021/07/15 11:20:32;;;;;;;9.63;3.85;;;35.60;58.00;;;;;;5043814;28;20187;-73
2021/07/15 11:23:21;;;;;;;11.50;4.32;;;35.60;58.80;;;;;;5024637;28;20310;-76
2021/07/15 11:25:48;;;;;;;6.47;3.72;;;35.40;58.60;;;;;;5029923;28;20228;-76
2021/07/15 11:28:18;;;;;;;9.23;4.10;;;35.20;63.00;;;;;;5057290;28;20183;-78
2021/07/15 11:30:47;;;;;;;6.40;3.78;;;35.40;56.80;;;;;;5024757;28;20176;-76
2021/07/15 11:33:21;;;;;;;7.47;3.80;;;35.30;62.00;;;;;;5038623;28;20536;-76
2021/07/15 11:36:07;;;;;;;6.20;4.00;;;35.40;58.20;;;;;;5025322;28;20315;-76
2021/07/15 11:38:57;;;;;;;6.20;4.15;;;35.30;58.70;;;;;;5042305;28;20196;-76
2021/07/15 11:41:40;;;;;;;8.70;4.13;;;35.40;59.80;;;;;;5042668;28;20559;-77
2021/07/15 11:44:06;;;;;;;5.88;3.88;;;35.50;57.80;;;;;;5043227;28;20237;-76
2021/07/15 11:46:32;;;;;;;8.40;3.97;;;35.40;62.90;;;;;;5039665;28;20215;-76
2021/07/15 11:49:10;;;;;;;6.07;3.35;;;35.40;63.30;;;;;;5042191;28;20191;-75
2021/07/15 11:51:37;;;;;;;7.65;4.05;;;35.40;60.80;;;;;;5040215;28;20186;-75
2021/07/15 11:54:30;;;;;;;8.05;3.72;;;35.30;63.60;;;;;;5025963;28;20528;-76
2021/07/15 11:57:12;;;;;;;9.18;4.45;;;35.30;62.30;;;;;;5048935;28;20282;-76
2021/07/15 11:59:44;;;;;;;11.82;4.30;;;35.30;63.80;;;;;;5044509;28;20195;-79
2021/07/15 12:02:28;;;;;;;10.95;3.97;;;35.30;65.30;;;;;;5041335;28;20191;-74
2021/07/15 12:05:22;;;;;;;8.93;4.22;;;35.10;64.70;;;;;;5039674;28;20238;-75
2021/07/15 12:08:07;;;;;;;8.50;4.40;;;35.30;64.40;;;;;;5037699;28;20243;-74
2021/07/15 12:10:41;;;;;;;5.55;4.00;;;35.40;66.50;;;;;;5022355;28;20186;-77
2021/07/15 12:13:12;;;;;;;10.48;4.00;;;35.30;64.60;;;;;;5024295;28;20181;-76
2021/07/15 12:15:43;;;;;;;7.72;4.00;;;35.30;65.40;;;;;;5041200;28;20199;-76
2021/07/15 12:18:19;;;;;;;8.73;4.10;;;35.10;66.70;;;;;;5041176;28;21395;-76
2021/07/15 12:21:05;;;;;;;11.35;4.50;;;35.10;69.60;;;;;;5056269;28;20312;-73
2021/07/15 12:23:37;;;;;;;7.15;4.07;;;35.20;65.30;;;;;;5038545;28;20700;-77
2021/07/15 12:26:12;;;;;;;9.93;4.32;;;35.20;65.10;;;;;;5051714;28;20211;-76
2021/07/15 12:28:44;;;;;;;11.20;4.38;;;35.30;67.20;;;;;;5035340;28;20197;-76
2021/07/15 12:31:13;;;;;;;7.93;4.50;;;35.20;69.00;;;;;;5039619;28;20175;-77
2021/07/15 12:33:45;;;;;;;8.38;5.03;;;35.20;70.30;;;;;;5027834;28;20184;-75
2021/07/15 12:36:25;;;;;;;11.82;4.85;;;35.20;75.70;;;;;;5023824;28;20279;-76
2021/07/15 12:39:01;;;;;;;11.95;4.50;;;35.10;77.20;;;;;;5060845;28;20214;-76
2021/07/15 12:41:32;;;;;;;7.70;4.32;;;35.00;74.70;;;;;;5040047;28;20206;-75
2021/07/15 12:44:14;;;;;;;10.18;4.45;;;35.00;78.50;;;;;;5052181;28;20192;-75
2021/07/15 12:46:49;;;;;;;6.90;4.20;;;34.90;76.90;;;;;;5055256;28;20231;-75
2021/07/15 12:49:22;;;;;;;7.82;4.72;;;34.90;75.60;;;;;;5050127;28;20489;-76
2021/07/15 12:51:59;;;;;;;5.68;4.28;;;34.90;78.80;;;;;;5026495;28;20202;-76
2021/07/15 12:54:35;;;;;;;8.82;4.10;;;34.90;76.20;;;;;;5037568;28;20195;-76
2021/07/15 12:57:13;;;;;;;7.90;4.50;;;34.90;79.30;;;;;;5055331;28;20241;-74
2021/07/15 12:59:43;;;;;;;8.55;4.65;;;35.00;75.50;;;;;;5014035;28;20655;-76
2021/07/15 13:02:12;;;;;;;6.78;4.43;;;34.90;79.00;;;;;;5054475;28;20268;-77